createdAt,value
2022-09-30T00:00:38.269Z,9.11
2022-09-30T00:01:38.310Z,9.11
2022-09-30T00:02:38.486Z,9.08
2022-09-30T00:03:39.540Z,9.03
2022-09-30T00:04:40.154Z,9.12
2022-09-30T00:05:41.397Z,8.97
2022-09-30T00:06:41.611Z,9.05
2022-09-30T00:07:41.809Z,9
2022-09-30T00:08:42.730Z,9.03
2022-09-30T00:09:43.110Z,9.08
2022-09-30T00:10:43.885Z,8.97
2022-09-30T00:11:44.102Z,8.97
2022-09-30T00:12:45.022Z,8.99
2022-09-30T00:13:46.235Z,8.9
2022-09-30T00:14:46.160Z,8.93
2022-09-30T00:15:46.499Z,8.82
2022-09-30T00:16:47.539Z,8.84
2022-09-30T00:17:48.051Z,8.87
2022-09-30T00:18:48.381Z,8.84
2022-09-30T00:19:49.003Z,8.77
2022-09-30T00:20:49.138Z,8.93
2022-09-30T00:21:50.362Z,9
2022-09-30T00:22:50.572Z,9.02
2022-09-30T00:23:50.495Z,8.96
2022-09-30T00:24:51.149Z,9.03
2022-09-30T00:25:52.363Z,9.05
2022-09-30T00:26:52.292Z,9
2022-09-30T00:27:53.209Z,8.97
2022-09-30T00:28:53.832Z,9.03
2022-09-30T00:29:54.456Z,8.97
2022-09-30T00:30:55.474Z,8.99
2022-09-30T00:31:55.877Z,9
2022-09-30T00:32:56.168Z,9.05
2022-09-30T00:33:57.060Z,9
2022-09-30T00:34:57.398Z,8.99
2022-09-30T00:35:57.457Z,8.99
2022-09-30T00:36:58.095Z,8.96
2022-09-30T00:37:59.319Z,8.97
2022-09-30T00:39:00.243Z,9.02
2022-09-30T00:40:01.176Z,9.05
2022-09-30T00:41:01.179Z,8.99
2022-09-30T00:42:02.380Z,9.02
2022-09-30T00:43:02.577Z,9.09
2022-09-30T00:44:02.574Z,9.05
2022-09-30T00:45:02.773Z,9.09
2022-09-30T00:46:03.981Z,9.11
2022-09-30T00:47:05.129Z,9.13
2022-09-30T00:48:05.183Z,9.16
2022-09-30T00:49:05.222Z,9.09
2022-09-30T00:50:06.115Z,9.09
2022-09-30T00:51:06.451Z,9.13
2022-09-30T00:52:06.669Z,9.13
2022-09-30T00:53:07.665Z,9.08
2022-09-30T00:54:08.603Z,9.21
2022-09-30T00:55:09.258Z,9.26
2022-09-30T00:56:09.891Z,9.22
2022-09-30T00:57:10.538Z,9.19
2022-09-30T00:58:10.858Z,9.21
2022-09-30T00:59:11.777Z,9.21
2022-09-30T01:00:13.243Z,9.22
2022-09-30T01:01:14.102Z,9.24
2022-09-30T01:02:14.216Z,9.15
2022-09-30T01:03:14.363Z,9.19
2022-09-30T01:04:14.701Z,9.29
2022-09-30T01:05:15.899Z,9.29
2022-09-30T01:06:16.838Z,9.29
2022-09-30T01:07:17.063Z,9.21
2022-09-30T01:08:17.268Z,9.19
2022-09-30T01:09:18.245Z,9.27
2022-09-30T01:10:18.263Z,9.12
2022-09-30T01:11:18.651Z,9.26
2022-09-30T01:12:19.269Z,9.29
2022-09-30T01:13:20.211Z,9.27
2022-09-30T01:14:21.404Z,9.34
2022-09-30T01:15:21.599Z,9.31
2022-09-30T01:16:21.742Z,9.3
2022-09-30T01:17:22.879Z,9.24
2022-09-30T01:18:23.502Z,9.24
2022-09-30T01:19:24.457Z,9.24
2022-09-30T01:20:25.371Z,9.18
2022-09-30T01:21:25.531Z,9.21
2022-09-30T01:22:26.453Z,9.27
2022-09-30T01:23:27.069Z,9.27
2022-09-30T01:24:27.685Z,9.29
2022-09-30T01:25:29.188Z,9.21
2022-09-30T01:26:30.168Z,9.29
2022-09-30T01:27:30.087Z,9.3
2022-09-30T01:28:30.997Z,9.31
2022-09-30T01:29:31.918Z,9.3
2022-09-30T01:30:32.535Z,9.27
2022-09-30T01:31:34.083Z,9.29
2022-09-30T01:32:34.284Z,9.18
2022-09-30T01:33:34.898Z,9.24
2022-09-30T01:34:35.516Z,9.3
2022-09-30T01:35:36.435Z,9.22
2022-09-30T01:36:37.650Z,9.34
2022-09-30T01:37:37.864Z,9.29
2022-09-30T01:38:37.800Z,9.21
2022-09-30T01:39:38.703Z,9.19
2022-09-30T01:40:38.908Z,9.24
2022-09-30T01:41:39.184Z,9.19
2022-09-30T01:42:39.490Z,9.24
2022-09-30T01:43:39.982Z,9.27
2022-09-30T01:44:40.016Z,9.24
2022-09-30T01:45:41.210Z,9.3
2022-09-30T01:46:42.361Z,9.27
2022-09-30T01:47:42.539Z,9.27
2022-09-30T01:48:43.438Z,9.27
2022-09-30T01:49:44.023Z,9.31
2022-09-30T01:50:44.232Z,9.29
2022-09-30T01:51:44.963Z,9.33
2022-09-30T01:52:46.176Z,9.26
2022-09-30T01:53:46.076Z,9.33
2022-09-30T01:54:46.985Z,9.36
2022-09-30T01:55:48.186Z,9.26
2022-09-30T01:56:49.112Z,9.21
2022-09-30T01:57:49.326Z,9.29
2022-09-30T01:58:49.515Z,9.33
2022-09-30T01:59:50.127Z,9.33
2022-09-30T02:00:51.505Z,9.29
2022-09-30T02:01:52.183Z,9.37
2022-09-30T02:02:52.008Z,9.29
2022-09-30T02:03:53.497Z,9.33
2022-09-30T02:04:53.829Z,9.31
2022-09-30T02:05:54.424Z,9.22
2022-09-30T02:06:54.482Z,9.3
2022-09-30T02:07:55.673Z,9.19
2022-09-30T02:08:56.786Z,9.24
2022-09-30T02:09:57.138Z,9.15
2022-09-30T02:10:58.338Z,9.09
2022-09-30T02:11:59.328Z,9.11
2022-09-30T02:12:59.938Z,9.08
2022-09-30T02:14:01.126Z,9.13
2022-09-30T02:15:01.261Z,9.12
2022-09-30T02:16:02.363Z,9.02
2022-09-30T02:17:02.623Z,9.05
2022-09-30T02:18:02.942Z,8.9
2022-09-30T02:19:03.833Z,8.99
2022-09-30T02:20:04.454Z,8.99
2022-09-30T02:21:04.769Z,9.02
2022-09-30T02:22:05.499Z,8.93
2022-09-30T02:23:05.981Z,8.78
2022-09-30T02:24:05.917Z,8.92
2022-09-30T02:25:06.846Z,8.89
2022-09-30T02:26:08.072Z,8.89
2022-09-30T02:27:07.995Z,8.81
2022-09-30T02:28:08.480Z,8.82
2022-09-30T02:29:08.402Z,8.82
2022-09-30T02:30:09.063Z,8.82
2022-09-30T02:31:10.511Z,8.75
2022-09-30T02:32:10.986Z,8.84
2022-09-30T02:33:11.897Z,8.78
2022-09-30T02:34:12.238Z,8.79
2022-09-30T02:35:13.455Z,8.77
2022-09-30T02:36:14.270Z,8.63
2022-09-30T02:37:15.477Z,8.68
2022-09-30T02:38:15.233Z,8.61
2022-09-30T02:39:16.152Z,8.64
2022-09-30T02:40:16.935Z,8.61
2022-09-30T02:41:18.156Z,8.69
2022-09-30T02:42:18.577Z,8.64
2022-09-30T02:43:18.904Z,8.64
2022-09-30T02:44:19.797Z,8.79
2022-09-30T02:45:20.820Z,8.74
2022-09-30T02:46:21.292Z,8.79
2022-09-30T02:47:21.060Z,8.74
2022-09-30T02:48:21.408Z,8.79
2022-09-30T02:49:22.122Z,8.77
2022-09-30T02:50:21.825Z,8.74
2022-09-30T02:51:22.432Z,8.81
2022-09-30T02:52:23.464Z,8.78
2022-09-30T02:53:23.374Z,8.81
2022-09-30T02:54:24.283Z,8.77
2022-09-30T02:55:24.488Z,8.79
2022-09-30T02:56:24.718Z,8.77
2022-09-30T02:57:24.926Z,8.86
2022-09-30T02:58:25.118Z,8.89
2022-09-30T02:59:25.538Z,8.86
2022-09-30T03:00:26.148Z,8.87
2022-09-30T03:01:26.714Z,8.79
2022-09-30T03:02:27.191Z,8.82
2022-09-30T03:03:28.084Z,8.87
2022-09-30T03:04:28.292Z,8.79
2022-09-30T03:05:28.494Z,8.86
2022-09-30T03:06:28.805Z,8.79
2022-09-30T03:07:29.740Z,8.84
2022-09-30T03:08:30.951Z,8.92
2022-09-30T03:09:31.146Z,8.82
2022-09-30T03:10:31.530Z,8.9
2022-09-30T03:11:31.725Z,8.9
2022-09-30T03:12:31.799Z,9
2022-09-30T03:13:32.722Z,8.97
2022-09-30T03:14:33.339Z,8.96
2022-09-30T03:15:33.670Z,8.95
2022-09-30T03:16:34.960Z,9
2022-09-30T03:17:34.717Z,8.99
2022-09-30T03:18:35.046Z,8.97
2022-09-30T03:19:35.959Z,8.93
2022-09-30T03:20:36.591Z,8.92
2022-09-30T03:21:37.506Z,8.78
2022-09-30T03:22:37.813Z,8.87
2022-09-30T03:23:38.340Z,8.81
2022-09-30T03:24:38.536Z,8.84
2022-09-30T03:25:38.724Z,8.9
2022-09-30T03:26:39.370Z,8.92
2022-09-30T03:27:39.868Z,8.89
2022-09-30T03:28:40.200Z,8.84
2022-09-30T03:29:41.386Z,8.82
2022-09-30T03:30:41.270Z,8.81
2022-09-30T03:31:42.144Z,8.92
2022-09-30T03:32:42.294Z,8.95
2022-09-30T03:33:42.780Z,9.03
2022-09-30T03:34:42.970Z,8.96
2022-09-30T03:35:43.616Z,8.96
2022-09-30T03:36:44.236Z,9.03
2022-09-30T03:37:45.146Z,8.97
2022-09-30T03:38:45.367Z,9.02
2022-09-30T03:39:46.269Z,8.99
2022-09-30T03:40:46.880Z,9.08
2022-09-30T03:41:47.804Z,9.02
2022-09-30T03:42:48.520Z,8.99
2022-09-30T03:43:48.433Z,8.96
2022-09-30T03:44:49.319Z,8.92
2022-09-30T03:45:49.211Z,8.9
2022-09-30T03:46:50.432Z,8.93
2022-09-30T03:47:51.171Z,8.95
2022-09-30T03:48:51.803Z,8.97
2022-09-30T03:49:52.435Z,8.96
2022-09-30T03:50:52.745Z,9.03
2022-09-30T03:51:59.280Z,9.02
2022-09-30T03:52:53.989Z,9.05
2022-09-30T03:53:53.894Z,9.08
2022-09-30T03:54:54.515Z,9.09
2022-09-30T03:55:55.403Z,8.97
2022-09-30T03:56:56.047Z,9
2022-09-30T03:57:56.663Z,9.11
2022-09-30T03:58:57.572Z,9.02
2022-09-30T03:59:57.760Z,9.02
2022-09-30T04:00:58.207Z,8.97
2022-09-30T04:01:59.505Z,9.11
2022-09-30T04:03:03.321Z,9.13
2022-09-30T04:04:00.229Z,9.11
2022-09-30T04:05:01.144Z,9.12
2022-09-30T04:06:01.054Z,9.11
2022-09-30T04:07:01.991Z,9.12
2022-09-30T04:08:03.218Z,9.11
2022-09-30T04:09:03.317Z,9.13
2022-09-30T04:10:03.789Z,9.13
2022-09-30T04:11:04.420Z,9.15
2022-09-30T04:12:04.652Z,9.09
2022-09-30T04:13:05.962Z,9.03
2022-09-30T04:14:06.173Z,9.19
2022-09-30T04:15:06.108Z,9.21
2022-09-30T04:16:06.808Z,9.19
2022-09-30T04:17:07.266Z,9.16
2022-09-30T04:18:07.882Z,9.16
2022-09-30T04:19:08.788Z,9.19
2022-09-30T04:20:09.083Z,9.21
2022-09-30T04:21:09.579Z,9.21
2022-09-30T04:22:10.472Z,9.26
2022-09-30T04:23:10.964Z,9.24
2022-09-30T04:24:11.456Z,9.19
2022-09-30T04:25:11.802Z,9.24
2022-09-30T04:26:12.397Z,9.15
2022-09-30T04:27:13.324Z,9.26
2022-09-30T04:28:13.528Z,9.16
2022-09-30T04:29:14.522Z,9.26
2022-09-30T04:30:14.252Z,9.16
2022-09-30T04:31:15.104Z,9.3
2022-09-30T04:32:15.100Z,9.18
2022-09-30T04:33:15.730Z,9.26
2022-09-30T04:34:16.651Z,9.27
2022-09-30T04:35:17.286Z,9.24
2022-09-30T04:36:18.173Z,9.3
2022-09-30T04:37:18.088Z,9.36
2022-09-30T04:38:19.300Z,9.31
2022-09-30T04:39:19.524Z,9.27
2022-09-30T04:40:19.744Z,9.27
2022-09-30T04:41:20.657Z,9.3
2022-09-30T04:42:21.875Z,9.27
2022-09-30T04:43:22.147Z,9.31
2022-09-30T04:44:22.763Z,9.26
2022-09-30T04:45:23.264Z,9.31
2022-09-30T04:46:24.348Z,9.22
2022-09-30T04:47:25.241Z,9.27
2022-09-30T04:48:26.150Z,9.22
2022-09-30T04:49:26.626Z,9.18
2022-09-30T04:50:27.510Z,9.22
2022-09-30T04:51:27.711Z,9.16
2022-09-30T04:52:28.021Z,9.12
2022-09-30T04:53:28.475Z,9.11
2022-09-30T04:54:29.663Z,9.11
2022-09-30T04:55:29.730Z,9.08
2022-09-30T04:56:30.069Z,9.08
2022-09-30T04:57:31.014Z,9.11
2022-09-30T04:58:37.374Z,9.03
2022-09-30T04:59:32.992Z,9.09
2022-09-30T05:00:34.051Z,9.05
2022-09-30T05:01:34.197Z,8.96
2022-09-30T05:02:34.854Z,9.03
2022-09-30T05:03:35.835Z,9.05
2022-09-30T05:04:36.017Z,9.08
2022-09-30T05:05:36.204Z,8.97
2022-09-30T05:06:36.695Z,9.02
2022-09-30T05:07:37.033Z,9.02
2022-09-30T05:08:43.183Z,9.11
2022-09-30T05:09:39.026Z,9.13
2022-09-30T05:10:39.332Z,9.13
2022-09-30T05:11:40.225Z,9.12
2022-09-30T05:12:40.451Z,9.11
2022-09-30T05:13:40.589Z,9.13
2022-09-30T05:14:41.281Z,9.09
2022-09-30T05:15:41.611Z,9.22
2022-09-30T05:16:43.576Z,9.19
2022-09-30T05:17:43.485Z,9.29
2022-09-30T05:18:43.816Z,9.26
2022-09-30T05:19:45.000Z,9.18
2022-09-30T05:20:45.181Z,9.24
2022-09-30T05:21:45.366Z,9.3
2022-09-30T05:22:45.257Z,9.27
2022-09-30T05:23:45.393Z,9.3
2022-09-30T05:24:46.328Z,9.3
2022-09-30T05:25:46.603Z,9.39
2022-09-30T05:26:47.094Z,9.37
2022-09-30T05:27:47.591Z,9.31
2022-09-30T05:28:48.535Z,9.33
2022-09-30T05:29:48.726Z,9.31
2022-09-30T05:30:49.343Z,9.31
2022-09-30T05:31:49.405Z,9.34
2022-09-30T05:32:49.906Z,9.33
2022-09-30T05:33:58.149Z,9.33
2022-09-30T05:34:50.916Z,9.26
2022-09-30T05:35:51.914Z,9.24
2022-09-30T05:36:52.822Z,9.21
2022-09-30T05:37:52.758Z,9.19
2022-09-30T05:38:53.397Z,9.09
2022-09-30T05:39:53.603Z,9.09
2022-09-30T05:40:54.144Z,9.03
2022-09-30T05:41:54.458Z,9.13
2022-09-30T05:42:55.950Z,9.11
2022-09-30T05:43:56.386Z,9.16
2022-09-30T05:44:56.880Z,9.16
2022-09-30T05:45:56.802Z,9.11
2022-09-30T05:46:58.348Z,9.08
2022-09-30T05:47:58.658Z,9.09
2022-09-30T05:48:58.844Z,9.18
2022-09-30T05:50:01.622Z,9.24
2022-09-30T05:50:59.811Z,9.24
2022-09-30T05:52:00.720Z,9.27
2022-09-30T05:53:01.910Z,9.24
2022-09-30T05:54:02.116Z,9.31
2022-09-30T05:55:02.746Z,9.19
2022-09-30T05:56:03.975Z,9.24
2022-09-30T05:57:04.864Z,9.29
2022-09-30T05:58:05.368Z,9.3
2022-09-30T05:59:05.568Z,9.34
2022-09-30T06:00:06.196Z,9.37
2022-09-30T06:01:15.005Z,9.42
2022-09-30T06:02:08.027Z,9.42
2022-09-30T06:03:09.114Z,9.51
2022-09-30T06:04:08.540Z,9.58
2022-09-30T06:05:09.179Z,9.48
2022-09-30T06:06:09.503Z,9.59
2022-09-30T06:07:15.905Z,9.64
2022-09-30T06:08:11.116Z,9.66
2022-09-30T06:09:12.215Z,9.64
2022-09-30T06:10:12.619Z,9.7
2022-09-30T06:11:13.538Z,9.62
2022-09-30T06:12:13.777Z,9.67
2022-09-30T06:13:14.715Z,9.69
2022-09-30T06:14:15.348Z,9.67
2022-09-30T06:15:15.244Z,9.69
2022-09-30T06:16:16.135Z,9.72
2022-09-30T06:17:16.235Z,9.8
2022-09-30T06:18:21.454Z,9.72
2022-09-30T06:19:17.368Z,9.72
2022-09-30T06:20:18.215Z,9.82
2022-09-30T06:21:18.533Z,9.87
2022-09-30T06:22:18.848Z,9.81
2022-09-30T06:23:20.044Z,9.88
2022-09-30T06:24:20.764Z,9.84
2022-09-30T06:25:21.963Z,9.82
2022-09-30T06:26:22.022Z,9.82
2022-09-30T06:27:22.959Z,9.87
2022-09-30T06:28:23.886Z,9.88
2022-09-30T06:29:25.260Z,9.97
2022-09-30T06:30:24.882Z,9.91
2022-09-30T06:31:26.309Z,10.02
2022-09-30T06:32:27.150Z,9.92
2022-09-30T06:33:28.065Z,9.91
2022-09-30T06:34:28.343Z,9.97
2022-09-30T06:35:28.833Z,10
2022-09-30T06:36:29.323Z,9.94
2022-09-30T06:37:28.944Z,9.99
2022-09-30T06:38:30.151Z,9.94
2022-09-30T06:39:31.200Z,9.91
2022-09-30T06:40:32.166Z,9.99
2022-09-30T06:41:33.386Z,9.87
2022-09-30T06:42:33.575Z,9.84
2022-09-30T06:43:42.340Z,9.92
2022-09-30T06:44:59.823Z,9.94
2022-09-30T06:46:26.270Z,9.95
2022-09-30T06:47:01.673Z,10.02
2022-09-30T06:48:06.146Z,10.02
2022-09-30T06:49:14.323Z,10.02
2022-09-30T06:50:03.457Z,10.05
2022-09-30T06:51:07.766Z,10.03
2022-09-30T06:52:04.975Z,9.94
2022-09-30T06:53:05.314Z,10.06
2022-09-30T06:54:06.231Z,10.03
2022-09-30T06:55:06.578Z,10.13
2022-09-30T06:56:06.779Z,10.09
2022-09-30T06:57:06.443Z,10.1
2022-09-30T06:58:08.127Z,10.12
2022-09-30T06:59:08.321Z,10.18
2022-09-30T07:00:08.639Z,10.09
2022-09-30T07:01:08.446Z,10.15
2022-09-30T07:02:09.437Z,10.18
2022-09-30T07:03:10.834Z,10.15
2022-09-30T07:04:11.454Z,10.21
2022-09-30T07:05:11.727Z,10.1
2022-09-30T07:06:12.658Z,10.2
2022-09-30T07:07:13.850Z,10.21
2022-09-30T07:08:13.764Z,10.27
2022-09-30T07:09:14.571Z,10.2
2022-09-30T07:10:14.771Z,10.18
2022-09-30T07:11:15.037Z,10.2
2022-09-30T07:12:15.269Z,10.21
2022-09-30T07:13:16.167Z,10.23
2022-09-30T07:14:17.436Z,10.2
2022-09-30T07:15:19.886Z,10.21
2022-09-30T07:16:18.663Z,10.31
2022-09-30T07:17:19.071Z,10.18
2022-09-30T07:18:19.685Z,10.23
2022-09-30T07:19:20.584Z,10.21
2022-09-30T07:20:20.517Z,10.23
2022-09-30T07:21:21.517Z,10.2
2022-09-30T07:22:21.875Z,10.3
2022-09-30T07:23:27.364Z,10.23
2022-09-30T07:24:23.927Z,10.3
2022-09-30T07:25:24.239Z,10.27
2022-09-30T07:26:25.445Z,10.27
2022-09-30T07:27:25.676Z,10.3
2022-09-30T07:28:25.888Z,10.27
2022-09-30T07:29:27.191Z,10.31
2022-09-30T07:30:32.955Z,10.36
2022-09-30T07:31:42.756Z,10.41
2022-09-30T07:32:28.785Z,10.39
2022-09-30T07:33:28.831Z,10.42
2022-09-30T07:34:29.425Z,10.25
2022-09-30T07:35:29.874Z,10.42
2022-09-30T07:36:36.834Z,10.39
2022-09-30T07:37:31.149Z,10.31
2022-09-30T07:38:31.586Z,10.38
2022-09-30T07:39:32.828Z,10.39
2022-09-30T07:40:33.070Z,10.38
2022-09-30T07:41:33.284Z,10.43
2022-09-30T07:42:33.930Z,10.43
2022-09-30T07:43:34.842Z,10.53
2022-09-30T07:44:34.791Z,10.51
2022-09-30T07:45:35.744Z,10.57
2022-09-30T07:46:36.193Z,10.67
2022-09-30T07:47:36.399Z,10.64
2022-09-30T07:48:36.252Z,10.58
2022-09-30T07:49:36.518Z,10.59
2022-09-30T07:50:37.459Z,10.57
2022-09-30T07:51:38.072Z,10.62
2022-09-30T07:52:38.693Z,10.61
2022-09-30T07:53:38.632Z,10.65
2022-09-30T07:54:50.989Z,10.62
2022-09-30T07:55:40.468Z,10.58
2022-09-30T07:57:12.286Z,10.64
2022-09-30T07:57:41.936Z,10.75
2022-09-30T07:58:42.430Z,10.75
2022-09-30T07:59:42.663Z,10.75
2022-09-30T08:00:48.770Z,10.8
2022-09-30T08:01:44.354Z,10.83
2022-09-30T08:02:45.607Z,10.86
2022-09-30T08:03:45.845Z,11.01
2022-09-30T08:04:49.683Z,10.97
2022-09-30T08:05:46.519Z,10.86
2022-09-30T08:06:47.177Z,10.89
2022-09-30T08:07:48.128Z,11.01
2022-09-30T08:08:48.332Z,10.87
2022-09-30T08:09:49.756Z,10.98
2022-09-30T08:10:49.602Z,11.04
2022-09-30T08:11:50.547Z,11
2022-09-30T08:12:56.164Z,11.12
2022-09-30T08:13:51.515Z,11.15
2022-09-30T08:14:52.036Z,11.2
2022-09-30T08:15:52.642Z,11.15
2022-09-30T08:16:53.626Z,11.16
2022-09-30T08:17:53.616Z,11.12
2022-09-30T08:18:54.572Z,11.16
2022-09-30T08:19:54.799Z,11.25
2022-09-30T08:20:54.905Z,11.16
2022-09-30T08:21:55.718Z,11.16
2022-09-30T08:22:55.977Z,11.12
2022-09-30T08:23:56.885Z,11.18
2022-09-30T08:24:58.082Z,11.1
2022-09-30T08:25:58.804Z,11.19
2022-09-30T08:26:59.422Z,11.05
2022-09-30T08:28:00.049Z,11
2022-09-30T08:29:00.272Z,10.97
2022-09-30T08:30:05.515Z,10.95
2022-09-30T08:31:01.730Z,11.05
2022-09-30T08:32:02.995Z,11.15
2022-09-30T08:33:03.333Z,11.25
2022-09-30T08:34:03.556Z,11.19
2022-09-30T08:35:03.759Z,11.16
2022-09-30T08:36:04.267Z,11.18
2022-09-30T08:37:09.887Z,11.15
2022-09-30T08:38:04.600Z,11.08
2022-09-30T08:39:05.241Z,11.05
2022-09-30T08:40:06.191Z,11.07
2022-09-30T08:41:07.168Z,11.05
2022-09-30T08:42:39.720Z,11.05
2022-09-30T08:43:08.554Z,11.02
2022-09-30T08:44:09.173Z,11.08
2022-09-30T08:45:09.433Z,11.04
2022-09-30T08:46:10.028Z,11.16
2022-09-30T08:47:10.095Z,11.22
2022-09-30T08:48:11.202Z,11.31
2022-09-30T08:49:10.961Z,11.37
2022-09-30T08:50:11.660Z,11.35
2022-09-30T08:51:12.895Z,11.34
2022-09-30T08:52:44.645Z,11.33
2022-09-30T08:53:13.704Z,11.31
2022-09-30T08:54:14.337Z,11.22
2022-09-30T08:55:15.542Z,11.23
2022-09-30T08:56:15.902Z,11.2
2022-09-30T08:57:16.386Z,11.23
2022-09-30T08:58:17.010Z,11.2
2022-09-30T08:59:17.210Z,11.37
2022-09-30T09:00:18.023Z,11.41
2022-09-30T09:01:18.429Z,11.4
2022-09-30T09:02:23.262Z,11.44
2022-09-30T09:03:19.416Z,11.44
2022-09-30T09:04:20.039Z,11.41
2022-09-30T09:05:20.259Z,11.43
2022-09-30T09:06:20.981Z,11.52
2022-09-30T09:07:21.623Z,11.53
2022-09-30T09:08:22.536Z,11.63
2022-09-30T09:09:23.731Z,11.76
2022-09-30T09:10:23.680Z,11.7
2022-09-30T09:11:24.623Z,11.74
2022-09-30T09:12:24.785Z,11.8
2022-09-30T09:13:25.702Z,11.78
2022-09-30T09:14:26.620Z,11.74
2022-09-30T09:15:27.612Z,11.81
2022-09-30T09:16:28.242Z,11.71
2022-09-30T09:17:29.389Z,11.65
2022-09-30T09:18:30.962Z,11.67
2022-09-30T09:19:30.042Z,11.7
2022-09-30T09:20:29.963Z,11.71
2022-09-30T09:21:31.192Z,11.8
2022-09-30T09:22:31.927Z,11.81
2022-09-30T09:23:32.873Z,11.83
2022-09-30T09:24:32.804Z,11.74
2022-09-30T09:25:33.996Z,11.67
2022-09-30T09:26:34.026Z,11.76
2022-09-30T09:27:35.938Z,11.76
2022-09-30T09:28:36.002Z,11.71
2022-09-30T09:29:36.943Z,11.73
2022-09-30T09:30:37.252Z,11.77
2022-09-30T09:31:38.066Z,11.77
2022-09-30T09:32:37.999Z,11.81
2022-09-30T09:33:38.625Z,11.89
2022-09-30T09:34:45.260Z,12.03
2022-09-30T09:35:40.607Z,12.08
2022-09-30T09:36:42.196Z,12.11
2022-09-30T09:37:42.112Z,12.15
2022-09-30T09:38:43.029Z,12.08
2022-09-30T09:39:43.643Z,12.23
2022-09-30T09:40:44.561Z,12.11
2022-09-30T09:41:44.816Z,12.2
2022-09-30T09:42:44.711Z,12.25
2022-09-30T09:43:45.912Z,12.26
2022-09-30T09:44:46.583Z,12.28
2022-09-30T09:45:47.392Z,12.37
2022-09-30T09:46:47.263Z,12.36
2022-09-30T09:47:47.465Z,12.43
2022-09-30T09:48:48.396Z,12.44
2022-09-30T09:49:52.707Z,12.37
2022-09-30T09:50:49.612Z,12.35
2022-09-30T09:51:49.511Z,12.37
2022-09-30T09:52:50.724Z,12.44
2022-09-30T09:53:50.648Z,12.43
2022-09-30T09:54:51.290Z,12.57
2022-09-30T09:55:52.520Z,12.51
2022-09-30T09:56:53.386Z,12.54
2022-09-30T09:57:53.606Z,12.51
2022-09-30T09:58:54.062Z,12.58
2022-09-30T09:59:54.126Z,12.57
2022-09-30T10:00:54.977Z,12.58
2022-09-30T10:01:55.750Z,12.57
2022-09-30T10:02:55.478Z,12.57
2022-09-30T10:03:56.102Z,12.63
2022-09-30T10:04:56.725Z,12.54
2022-09-30T10:05:56.954Z,12.68
2022-09-30T10:06:58.021Z,12.69
2022-09-30T10:07:58.957Z,12.57
2022-09-30T10:08:59.852Z,12.57
2022-09-30T10:10:00.345Z,12.51
2022-09-30T10:11:00.569Z,12.44
2022-09-30T10:12:00.800Z,12.43
2022-09-30T10:13:00.987Z,12.33
2022-09-30T10:14:02.189Z,12.25
2022-09-30T10:15:02.807Z,12.08
2022-09-30T10:16:04.305Z,12.07
2022-09-30T10:17:04.686Z,12.15
2022-09-30T10:18:05.621Z,12.11
2022-09-30T10:19:10.121Z,12.07
2022-09-30T10:20:05.755Z,12.07
2022-09-30T10:21:06.962Z,12.21
2022-09-30T10:22:06.859Z,12.14
2022-09-30T10:23:07.758Z,12.29
2022-09-30T10:24:07.962Z,12.29
2022-09-30T10:25:08.656Z,12.3
2022-09-30T10:26:09.853Z,12.28
2022-09-30T10:27:09.733Z,12.17
2022-09-30T10:28:11.153Z,12.17
2022-09-30T10:29:11.352Z,12.05
2022-09-30T10:30:12.294Z,11.95
2022-09-30T10:31:12.393Z,11.95
2022-09-30T10:32:13.310Z,11.96
2022-09-30T10:33:13.378Z,11.91
2022-09-30T10:34:13.709Z,11.93
2022-09-30T10:35:14.603Z,11.95
2022-09-30T10:36:14.943Z,11.89
2022-09-30T10:37:15.956Z,11.93
2022-09-30T10:38:16.151Z,11.88
2022-09-30T10:39:16.881Z,11.86
2022-09-30T10:40:17.803Z,11.83
2022-09-30T10:41:18.146Z,11.71
2022-09-30T10:42:26.786Z,11.71
2022-09-30T10:43:19.892Z,11.76
2022-09-30T10:44:20.117Z,11.78
2022-09-30T10:45:20.311Z,11.83
2022-09-30T10:46:32.081Z,11.83
2022-09-30T10:47:21.030Z,11.86
2022-09-30T10:48:21.603Z,11.86
2022-09-30T10:49:22.100Z,11.89
2022-09-30T10:50:22.090Z,11.81
2022-09-30T10:51:22.416Z,11.8
2022-09-30T10:52:22.661Z,11.83
2022-09-30T10:53:24.158Z,11.85
2022-09-30T10:54:24.379Z,11.8
2022-09-30T10:55:24.542Z,11.81
2022-09-30T10:56:24.458Z,11.81
2022-09-30T10:57:25.015Z,11.95
2022-09-30T10:58:24.977Z,11.97
2022-09-30T10:59:25.589Z,12.03
2022-09-30T11:00:27.084Z,12.15
2022-09-30T11:01:28.496Z,12.17
2022-09-30T11:02:28.029Z,12.14
2022-09-30T11:03:29.171Z,12.32
2022-09-30T11:04:29.162Z,12.39
2022-09-30T11:05:30.658Z,12.53
2022-09-30T11:06:31.344Z,12.76
2022-09-30T11:07:31.087Z,13.09
2022-09-30T11:08:32.010Z,13.45
2022-09-30T11:09:32.343Z,13.67
2022-09-30T11:10:33.456Z,14.05
2022-09-30T11:11:34.655Z,14.25
2022-09-30T11:12:35.552Z,14.41
2022-09-30T11:13:35.777Z,14.61
2022-09-30T11:14:36.688Z,14.77
2022-09-30T11:15:36.877Z,14.94
2022-09-30T11:16:37.744Z,15
2022-09-30T11:17:37.883Z,14.82
2022-09-30T11:18:38.080Z,14.82
2022-09-30T11:19:39.005Z,14.79
2022-09-30T11:20:39.495Z,14.73
2022-09-30T11:21:39.440Z,14.53
2022-09-30T11:22:39.623Z,14.48
2022-09-30T11:23:39.851Z,14.36
2022-09-30T11:24:40.347Z,14.3
2022-09-30T11:25:40.275Z,14.31
2022-09-30T11:26:41.200Z,14.13
2022-09-30T11:27:42.005Z,14.01
2022-09-30T11:28:42.042Z,13.86
2022-09-30T11:29:41.966Z,13.75
2022-09-30T11:30:42.868Z,13.73
2022-09-30T11:31:43.399Z,13.65
2022-09-30T11:32:44.175Z,13.62
2022-09-30T11:33:45.120Z,13.55
2022-09-30T11:34:45.759Z,13.55
2022-09-30T11:35:46.271Z,13.49
2022-09-30T11:36:48.500Z,13.46
2022-09-30T11:37:47.561Z,13.54
2022-09-30T11:38:48.063Z,13.39
2022-09-30T11:39:47.974Z,13.43
2022-09-30T11:40:48.205Z,13.55
2022-09-30T11:41:49.397Z,13.47
2022-09-30T11:42:49.325Z,13.54
2022-09-30T11:43:49.702Z,13.52
2022-09-30T11:44:50.679Z,13.58
2022-09-30T11:45:51.900Z,13.57
2022-09-30T11:46:52.653Z,13.57
2022-09-30T11:47:53.384Z,13.55
2022-09-30T11:48:54.306Z,13.61
2022-09-30T11:49:55.225Z,13.6
2022-09-30T11:50:55.446Z,13.68
2022-09-30T11:51:56.380Z,13.78
2022-09-30T11:52:56.595Z,13.83
2022-09-30T11:53:57.812Z,13.87
2022-09-30T11:54:57.439Z,13.94
2022-09-30T11:55:58.935Z,14.15
2022-09-30T11:56:59.282Z,14.19
2022-09-30T11:58:36.495Z,14.2
2022-09-30T11:59:01.019Z,14.25
2022-09-30T12:00:01.225Z,14.28
2022-09-30T12:01:01.304Z,14.38
2022-09-30T12:02:03.126Z,14.36
2022-09-30T12:03:10.108Z,14.41
2022-09-30T12:04:03.978Z,14.56
2022-09-30T12:05:04.962Z,14.59
2022-09-30T12:06:05.601Z,14.62
2022-09-30T12:07:05.508Z,14.86
2022-09-30T12:08:05.950Z,14.85
2022-09-30T12:09:06.887Z,14.87
2022-09-30T12:10:07.835Z,14.78
2022-09-30T12:11:08.455Z,14.78
2022-09-30T12:12:16.614Z,14.78
2022-09-30T12:13:08.544Z,14.73
2022-09-30T12:14:09.766Z,14.62
2022-09-30T12:15:10.255Z,14.48
2022-09-30T12:16:11.078Z,14.4
2022-09-30T12:17:11.846Z,14.2
2022-09-30T12:18:12.163Z,14.15
2022-09-30T12:19:12.383Z,14.03
2022-09-30T12:20:12.789Z,13.93
2022-09-30T12:21:12.706Z,13.86
2022-09-30T12:22:13.641Z,13.86
2022-09-30T12:23:14.837Z,13.82
2022-09-30T12:24:15.035Z,13.94
2022-09-30T12:25:14.958Z,13.87
2022-09-30T12:26:16.179Z,13.82
2022-09-30T12:27:16.729Z,13.73
2022-09-30T12:28:17.705Z,13.68
2022-09-30T12:29:17.839Z,13.7
2022-09-30T12:30:19.043Z,13.68
2022-09-30T12:31:19.188Z,13.65
2022-09-30T12:32:19.595Z,13.65
2022-09-30T12:33:20.507Z,13.64
2022-09-30T12:34:20.141Z,13.55
2022-09-30T12:35:21.083Z,13.46
2022-09-30T12:36:21.727Z,13.33
2022-09-30T12:37:22.430Z,13.37
2022-09-30T12:38:22.775Z,13.36
2022-09-30T12:39:22.989Z,13.43
2022-09-30T12:40:23.908Z,13.42
2022-09-30T12:41:23.810Z,13.47
2022-09-30T12:42:24.303Z,13.45
2022-09-30T12:43:24.500Z,13.55
2022-09-30T12:44:24.153Z,13.57
2022-09-30T12:45:25.351Z,13.52
2022-09-30T12:46:26.570Z,13.52
2022-09-30T12:47:27.480Z,13.55
2022-09-30T12:48:27.696Z,13.57
2022-09-30T12:49:27.617Z,13.52
2022-09-30T12:50:28.242Z,13.45
2022-09-30T12:51:29.678Z,13.43
2022-09-30T12:52:30.599Z,13.3
2022-09-30T12:53:31.801Z,13.28
2022-09-30T12:54:31.751Z,13.3
2022-09-30T12:55:32.668Z,13.3
2022-09-30T12:56:33.777Z,13.33
2022-09-30T12:57:33.410Z,13.27
2022-09-30T12:58:36.850Z,13.37
2022-09-30T12:59:35.380Z,13.27
2022-09-30T13:00:35.570Z,13.28
2022-09-30T13:01:35.491Z,13.39
2022-09-30T13:02:36.379Z,13.31
2022-09-30T13:03:36.168Z,13.37
2022-09-30T13:04:36.388Z,13.28
2022-09-30T13:05:36.610Z,13.21
2022-09-30T13:06:37.485Z,13.26
2022-09-30T13:07:37.696Z,13.23
2022-09-30T13:08:38.048Z,13.28
2022-09-30T13:09:38.547Z,13.23
2022-09-30T13:10:38.748Z,13.36
2022-09-30T13:11:38.663Z,13.4
2022-09-30T13:12:38.986Z,13.45
2022-09-30T13:13:39.713Z,13.49
2022-09-30T13:14:40.950Z,13.49
2022-09-30T13:15:41.169Z,13.45
2022-09-30T13:16:42.457Z,13.4